createdAt,value
2019-05-02T00:02:13.031Z,19.70
2019-05-02T00:04:43.305Z,18.43
2019-05-02T00:07:14.365Z,19.60
2019-05-02T00:09:48.844Z,19.57
2019-05-02T00:12:18.393Z,21.30
2019-05-02T00:14:48.705Z,18.77
2019-05-02T00:17:20.225Z,20.23
2019-05-02T00:19:51.418Z,19.90
2019-05-02T00:22:21.476Z,20.00
2019-05-02T00:24:51.547Z,20.53
2019-05-02T00:27:21.974Z,20.50
2019-05-02T00:29:53.746Z,19.27
2019-05-02T00:32:24.491Z,21.03
2019-05-02T00:34:54.547Z,20.77
2019-05-02T00:37:26.643Z,21.27
2019-05-02T00:39:56.342Z,20.90
2019-05-02T00:42:26.344Z,20.97
2019-05-02T00:44:56.346Z,21.40
2019-05-02T00:47:47.859Z,21.07
2019-05-02T00:50:17.783Z,20.80
2019-05-02T00:52:47.777Z,22.80
2019-05-02T00:55:17.766Z,23.03
2019-05-02T00:57:50.843Z,22.40
2019-05-02T01:00:20.221Z,21.07
2019-05-02T01:02:57.501Z,21.63
2019-05-02T01:05:28.909Z,21.90
2019-05-02T01:08:01.212Z,23.37
2019-05-02T01:10:30.569Z,21.83
2019-05-02T01:13:00.918Z,21.87
2019-05-02T01:15:30.928Z,22.73
2019-05-02T01:18:01.302Z,22.30
2019-05-02T01:20:32.510Z,20.73
2019-05-02T01:23:02.505Z,21.80
2019-05-02T01:25:32.890Z,21.87
2019-05-02T01:28:20.412Z,21.90
2019-05-02T01:31:08.121Z,22.40
2019-05-02T01:33:55.783Z,22.03
2019-05-02T01:36:48.986Z,23.13
2019-05-02T01:39:18.970Z,22.57
2019-05-02T01:41:48.962Z,22.43
2019-05-02T01:44:19.015Z,21.00
2019-05-02T01:46:49.139Z,22.27
2019-05-02T01:49:21.878Z,23.07
2019-05-02T01:51:50.708Z,22.30
2019-05-02T01:54:20.707Z,22.90
2019-05-02T01:56:50.701Z,21.03
2019-05-02T01:59:20.838Z,23.07
2019-05-02T02:01:53.210Z,21.57
2019-05-02T02:04:22.438Z,22.27
2019-05-02T02:06:52.399Z,21.40
2019-05-02T02:09:22.835Z,22.50
2019-05-02T02:11:52.837Z,20.93
2019-05-02T02:14:22.884Z,20.57
2019-05-02T02:16:52.962Z,21.53
2019-05-02T02:19:39.100Z,22.07
2019-05-02T02:22:24.481Z,20.80
2019-05-02T02:25:12.265Z,20.63
2019-05-02T02:27:42.322Z,21.33
2019-05-02T02:30:17.663Z,23.03
2019-05-02T02:32:44.274Z,21.90
2019-05-02T02:35:14.445Z,22.27
2019-05-02T02:37:52.392Z,20.73
2019-05-02T02:40:16.192Z,21.40
2019-05-02T02:42:46.209Z,22.67
2019-05-02T02:45:39.967Z,21.27
2019-05-02T02:48:10.003Z,22.47
2019-05-02T02:50:43.109Z,21.67
2019-05-02T02:53:18.224Z,21.17
2019-05-02T02:55:43.382Z,19.47
2019-05-02T02:58:13.566Z,23.07
2019-05-02T03:00:47.572Z,23.97
2019-05-02T03:03:20.685Z,20.67
2019-05-02T03:05:47.419Z,22.13
2019-05-02T03:08:17.498Z,23.07
2019-05-02T03:10:47.466Z,23.73
2019-05-02T03:13:51.545Z,22.23
2019-05-02T03:16:09.714Z,23.37
2019-05-02T03:18:42.865Z,25.87
2019-05-02T03:21:13.259Z,23.53
2019-05-02T03:23:44.495Z,23.63
2019-05-02T03:26:15.633Z,23.40
2019-05-02T03:28:57.703Z,21.83
2019-05-02T03:31:30.651Z,23.90
2019-05-02T03:33:56.797Z,24.40
2019-05-02T03:36:34.941Z,24.03
2019-05-02T03:38:53.297Z,24.83
2019-05-02T03:41:23.755Z,25.00
2019-05-02T03:44:09.854Z,27.50
2019-05-02T03:46:25.560Z,26.57
2019-05-02T03:49:06.250Z,27.90
2019-05-02T03:51:27.490Z,26.87
2019-05-02T03:54:05.714Z,24.80
2019-05-02T03:56:29.646Z,27.40
2019-05-02T03:58:59.799Z,27.87
2019-05-02T04:01:34.540Z,29.00
2019-05-02T04:04:04.252Z,28.07
2019-05-02T04:06:34.609Z,26.07
2019-05-02T04:09:06.938Z,25.87
2019-05-02T04:11:38.927Z,27.63
2019-05-02T04:14:15.931Z,22.57
2019-05-02T04:16:41.394Z,24.87
2019-05-02T04:19:13.085Z,26.13
2019-05-02T04:21:43.796Z,26.30
2019-05-02T04:24:16.031Z,24.33
2019-05-02T04:26:53.441Z,22.13
2019-05-02T04:29:17.549Z,25.50
2019-05-02T04:31:47.519Z,25.60
2019-05-02T04:34:17.910Z,24.40
2019-05-02T04:36:59.788Z,26.40
2019-05-02T04:39:21.634Z,23.57
2019-05-02T04:41:52.058Z,22.13
2019-05-02T04:44:22.118Z,23.87
2019-05-02T04:46:59.740Z,21.77
2019-05-02T04:49:32.686Z,21.53
2019-05-02T04:52:03.134Z,24.07
2019-05-02T04:54:32.024Z,24.57
2019-05-02T04:57:02.494Z,25.90
2019-05-02T04:59:33.314Z,23.97
2019-05-02T05:02:03.097Z,25.57
2019-05-02T05:04:42.032Z,25.87
2019-05-02T05:07:05.106Z,24.37
2019-05-02T05:09:35.160Z,26.33
2019-05-02T05:12:07.045Z,22.20
2019-05-02T05:14:39.427Z,26.47
2019-05-02T05:17:08.493Z,19.67
2019-05-02T05:19:38.377Z,23.13
2019-05-02T05:22:11.598Z,26.80
2019-05-02T05:24:50.112Z,25.80
2019-05-02T05:27:22.761Z,25.30
2019-05-02T05:29:53.714Z,25.73
2019-05-02T05:32:23.688Z,25.97
2019-05-02T05:34:53.764Z,24.30
2019-05-02T05:37:23.746Z,25.17
2019-05-02T05:39:53.555Z,22.20
2019-05-02T05:42:30.084Z,24.73
2019-05-02T05:44:55.135Z,22.43
2019-05-02T05:47:25.117Z,25.23
2019-05-02T05:49:57.549Z,24.13
2019-05-02T05:52:27.210Z,27.70
2019-05-02T05:54:57.931Z,23.47
2019-05-02T05:57:28.082Z,23.70
2019-05-02T05:59:58.542Z,23.43
2019-05-02T06:02:28.637Z,22.60
2019-05-02T06:05:02.551Z,22.27
2019-05-02T06:07:33.679Z,21.27
2019-05-02T06:10:07.967Z,22.60
2019-05-02T06:12:35.540Z,23.07
2019-05-02T06:15:06.405Z,20.00
2019-05-02T06:17:36.367Z,22.80
2019-05-02T06:20:06.645Z,23.00
2019-05-02T06:22:36.942Z,22.50
2019-05-02T06:25:09.747Z,20.87
2019-05-02T06:27:39.972Z,24.60
2019-05-02T06:30:11.377Z,23.77
2019-05-02T06:32:41.642Z,21.87
2019-05-02T06:35:11.721Z,22.47
2019-05-02T06:37:45.238Z,24.13
2019-05-02T06:40:13.689Z,23.30
2019-05-02T06:42:43.680Z,23.67
2019-05-02T06:45:13.850Z,24.17
2019-05-02T06:47:44.210Z,21.80
2019-05-02T06:50:14.502Z,24.13
2019-05-02T06:52:44.562Z,22.93
2019-05-02T06:55:14.644Z,21.27
2019-05-02T06:57:45.002Z,19.90
2019-05-02T07:00:15.843Z,23.77
2019-05-02T07:02:45.872Z,23.07
2019-05-02T07:05:16.281Z,22.50
2019-05-02T07:07:46.333Z,23.27
2019-05-02T07:10:20.053Z,18.90
2019-05-02T07:12:51.102Z,17.27
2019-05-02T07:15:40.355Z,24.53
2019-05-02T07:18:13.189Z,23.47
2019-05-02T07:20:43.182Z,21.73
2019-05-02T07:23:16.147Z,19.53
2019-05-02T07:25:45.272Z,22.63
2019-05-02T07:28:15.372Z,22.80
2019-05-02T07:30:45.355Z,12.97
2019-05-02T07:33:15.296Z,22.93
2019-05-02T07:35:45.208Z,21.67
2019-05-02T07:38:15.182Z,25.30
2019-05-02T07:40:48.176Z,26.03
2019-05-02T07:43:21.009Z,23.30
2019-05-02T07:45:49.012Z,24.60
2019-05-02T07:48:19.137Z,25.50
2019-05-02T07:50:49.244Z,21.23
2019-05-02T07:53:19.210Z,23.17
2019-05-02T07:55:50.260Z,22.73
2019-05-02T07:58:20.237Z,20.47
2019-05-02T08:00:50.202Z,25.37
2019-05-02T08:03:20.186Z,24.23
2019-05-02T08:05:54.394Z,22.27
2019-05-02T08:08:24.992Z,19.87
2019-05-02T08:11:01.557Z,24.03
2019-05-02T08:13:25.093Z,24.33
2019-05-02T08:15:55.146Z,25.83
2019-05-02T08:18:30.266Z,25.70
2019-05-02T08:20:58.183Z,23.93
2019-05-02T08:23:28.512Z,22.30
2019-05-02T08:25:59.445Z,27.50
2019-05-02T08:28:38.717Z,25.37
2019-05-02T08:31:08.674Z,23.83
2019-05-02T08:33:38.667Z,24.80
2019-05-02T08:36:08.544Z,24.07
2019-05-02T08:38:38.604Z,21.53
2019-05-02T08:41:08.575Z,23.53
2019-05-02T08:43:40.136Z,21.73
2019-05-02T08:46:14.484Z,20.20
2019-05-02T08:48:43.707Z,22.93
2019-05-02T08:51:13.611Z,23.40
2019-05-02T08:53:43.622Z,21.23
2019-05-02T08:56:16.061Z,20.27
2019-05-02T08:58:49.970Z,21.90
2019-05-02T09:01:17.391Z,22.50
2019-05-02T09:03:55.474Z,22.43
2019-05-02T09:06:22.864Z,21.37
2019-05-02T09:08:51.265Z,20.83
2019-05-02T09:11:22.784Z,19.87
2019-05-02T09:13:53.186Z,20.67
2019-05-02T09:16:28.624Z,22.97
2019-05-02T09:18:54.908Z,21.30
2019-05-02T09:21:26.722Z,18.20
2019-05-02T09:23:56.660Z,23.20
2019-05-02T09:26:36.085Z,17.47
2019-05-02T09:29:01.636Z,23.40
2019-05-02T09:31:32.125Z,23.57
2019-05-02T09:34:02.822Z,20.13
2019-05-02T09:36:33.016Z,17.63
2019-05-02T09:39:04.284Z,22.63
2019-05-02T09:41:36.239Z,22.03
2019-05-02T09:44:08.966Z,23.47
2019-05-02T09:46:38.498Z,19.17
2019-05-02T09:49:13.402Z,23.20
2019-05-02T09:51:41.924Z,22.17
2019-05-02T09:54:12.090Z,23.00
2019-05-02T09:56:43.109Z,24.20
2019-05-02T09:59:26.232Z,23.47
2019-05-02T10:01:45.006Z,20.60
2019-05-02T10:04:15.069Z,23.93
2019-05-02T10:06:45.201Z,23.00
2019-05-02T10:09:18.669Z,20.37
2019-05-02T10:11:47.253Z,23.80
2019-05-02T10:14:17.236Z,20.77
2019-05-02T10:16:47.859Z,22.53
2019-05-02T10:19:17.862Z,23.67
2019-05-02T10:21:54.277Z,23.03
2019-05-02T10:24:19.577Z,24.63
2019-05-02T10:26:49.552Z,21.37
2019-05-02T10:29:22.843Z,23.83
2019-05-02T10:31:52.649Z,23.80
2019-05-02T10:34:23.236Z,25.32
2019-05-02T10:36:58.538Z,25.00
2019-05-02T10:39:28.527Z,22.70
2019-05-02T10:41:57.628Z,23.93
2019-05-02T10:44:32.604Z,22.00
2019-05-02T10:47:00.219Z,23.97
2019-05-02T10:49:58.952Z,21.75
2019-05-02T10:52:29.994Z,23.70
2019-05-02T10:55:02.680Z,20.95
2019-05-02T10:57:32.711Z,21.50
2019-05-02T11:00:03.380Z,23.22
2019-05-02T11:02:52.568Z,21.42
2019-05-02T11:05:26.463Z,23.92
2019-05-02T11:07:56.906Z,24.35
2019-05-02T11:10:27.926Z,17.63
2019-05-02T11:13:04.772Z,21.30
2019-05-02T11:15:52.601Z,25.00
2019-05-02T11:18:39.576Z,24.27
2019-05-02T11:20:59.144Z,20.65
2019-05-02T11:23:32.678Z,23.10
2019-05-02T11:26:02.125Z,15.48
2019-05-02T11:28:32.451Z,21.55
2019-05-02T11:31:06.853Z,22.65
2019-05-02T11:33:34.516Z,21.35
2019-05-02T11:36:04.555Z,22.20
2019-05-02T11:38:35.871Z,21.00
2019-05-02T11:41:06.177Z,19.95
2019-05-02T11:43:37.069Z,20.30
2019-05-02T11:46:07.895Z,20.68
2019-05-02T11:48:37.802Z,19.75
2019-05-02T11:51:12.757Z,19.82
2019-05-02T11:53:39.521Z,18.00
2019-05-02T11:56:11.618Z,16.23
2019-05-02T11:58:48.238Z,17.60
2019-05-02T12:01:12.911Z,13.95
2019-05-02T12:03:46.355Z,17.25
2019-05-02T12:06:19.674Z,18.57
2019-05-02T12:08:49.524Z,18.25
2019-05-02T12:11:19.979Z,18.05
2019-05-02T12:13:52.842Z,16.75
2019-05-02T12:16:22.852Z,18.87
2019-05-02T12:18:53.739Z,18.87
2019-05-02T12:21:24.877Z,15.00
2019-05-02T12:23:54.908Z,17.45
2019-05-02T12:26:24.933Z,17.20
2019-05-02T12:28:55.013Z,17.77
2019-05-02T12:31:32.150Z,16.85
2019-05-02T12:34:04.017Z,18.70
2019-05-02T12:36:34.241Z,18.35
2019-05-02T12:39:05.685Z,16.17
2019-05-02T12:41:36.156Z,17.00
2019-05-02T12:44:06.287Z,15.53
2019-05-02T12:46:36.367Z,17.30
2019-05-02T12:49:06.350Z,17.87
2019-05-02T12:51:36.418Z,17.50
2019-05-02T12:54:06.398Z,18.92
2019-05-02T12:56:36.390Z,17.57
2019-05-02T12:59:06.514Z,16.60
2019-05-02T13:01:36.650Z,17.32
2019-05-02T13:04:15.813Z,16.65
2019-05-02T13:06:46.210Z,18.48
2019-05-02T13:09:16.245Z,16.48
2019-05-02T13:11:58.866Z,16.60
2019-05-02T13:14:31.989Z,17.07
2019-05-02T13:17:05.589Z,18.70
2019-05-02T13:19:40.038Z,19.57
2019-05-02T13:22:16.511Z,19.30
2019-05-02T13:24:54.142Z,15.88
2019-05-02T13:27:22.844Z,18.50
2019-05-02T13:29:53.442Z,17.75
2019-05-02T13:32:33.778Z,19.82
2019-05-02T13:35:34.348Z,18.57
2019-05-02T13:38:06.563Z,18.55
2019-05-02T13:40:48.262Z,18.35
2019-05-02T13:43:18.846Z,19.07
2019-05-02T13:46:12.590Z,18.80
2019-05-02T13:48:44.085Z,18.30
2019-05-02T13:51:14.059Z,17.82
2019-05-02T13:53:55.419Z,19.00
2019-05-02T13:56:47.788Z,15.40
2019-05-02T13:59:19.143Z,19.98
2019-05-02T14:01:52.137Z,19.45
2019-05-02T14:04:24.026Z,19.10
2019-05-02T14:06:54.494Z,16.93
2019-05-02T14:09:44.028Z,19.12
2019-05-02T14:12:28.529Z,16.10
2019-05-02T14:14:58.817Z,17.55
2019-05-02T14:17:29.056Z,18.80
2019-05-02T14:20:10.014Z,17.45
2019-05-02T14:22:32.407Z,17.98
2019-05-02T14:25:02.566Z,17.80
2019-05-02T14:27:32.615Z,17.35
2019-05-02T14:30:02.716Z,17.33
2019-05-02T14:32:34.374Z,19.17
2019-05-02T14:35:14.085Z,24.20
2019-05-02T14:37:44.087Z,30.80
2019-05-02T14:40:29.575Z,32.08
2019-05-02T14:43:03.468Z,30.12
2019-05-02T14:45:33.879Z,33.13
2019-05-02T14:48:18.030Z,35.60
2019-05-02T14:50:36.583Z,36.00
2019-05-02T14:53:06.590Z,34.67
2019-05-02T14:55:39.135Z,37.33
2019-05-02T14:58:09.032Z,33.67
2019-05-02T15:00:45.817Z,34.85
2019-05-02T15:03:13.554Z,36.17
2019-05-02T15:05:43.858Z,34.93
2019-05-02T15:08:13.805Z,35.07
2019-05-02T15:10:52.512Z,33.60
2019-05-02T15:13:15.858Z,34.63
2019-05-02T15:15:45.835Z,34.80
2019-05-02T15:18:17.511Z,34.43
2019-05-02T15:20:47.783Z,33.93
2019-05-02T15:23:19.843Z,37.37
2019-05-02T15:25:52.607Z,36.77
2019-05-02T15:28:22.857Z,37.57
2019-05-02T15:31:05.436Z,37.43
2019-05-02T15:33:42.108Z,37.63
2019-05-02T15:36:12.575Z,37.13
2019-05-02T15:38:47.239Z,42.30
2019-05-02T15:41:15.583Z,40.67
2019-05-02T15:43:49.167Z,40.70
2019-05-02T15:46:23.676Z,35.50
2019-05-02T15:48:49.708Z,43.00
2019-05-02T15:51:19.798Z,41.60
2019-05-02T15:54:04.823Z,42.40
2019-05-02T15:56:27.543Z,41.80
2019-05-02T15:58:58.066Z,42.83
2019-05-02T16:01:41.581Z,42.13
2019-05-02T16:04:12.821Z,41.93
2019-05-02T16:06:43.036Z,41.47
2019-05-02T16:09:13.681Z,38.97
2019-05-02T16:11:47.842Z,40.90
2019-05-02T16:14:15.813Z,39.97
2019-05-02T16:16:45.806Z,41.07
2019-05-02T16:19:24.866Z,39.00
2019-05-02T16:22:08.155Z,38.53
2019-05-02T16:24:38.901Z,43.13
2019-05-02T16:27:08.925Z,43.87
2019-05-02T16:29:38.990Z,42.43
2019-05-02T16:32:42.076Z,41.07
2019-05-02T16:35:17.273Z,41.50
2019-05-02T16:37:51.088Z,39.67
2019-05-02T16:40:22.091Z,42.17
2019-05-02T16:42:51.817Z,44.07
2019-05-02T16:45:22.546Z,44.50
2019-05-02T16:47:58.821Z,41.97
2019-05-02T16:50:27.615Z,44.10
2019-05-02T16:52:56.602Z,44.07
2019-05-02T16:55:26.866Z,43.73
2019-05-02T16:58:05.195Z,44.45
2019-05-02T17:00:29.371Z,44.60
2019-05-02T17:02:59.523Z,42.07
2019-05-02T17:05:29.586Z,43.20
2019-05-02T17:08:10.705Z,44.83
2019-05-02T17:11:03.608Z,44.37
2019-05-02T17:13:35.814Z,42.67
2019-05-02T17:16:13.124Z,42.57
2019-05-02T17:18:37.850Z,41.10
2019-05-02T17:21:08.119Z,41.77
2019-05-02T17:23:42.811Z,41.50
2019-05-02T17:26:09.871Z,42.03
2019-05-02T17:28:43.272Z,42.57
2019-05-02T17:31:19.277Z,42.47
2019-05-02T17:33:46.282Z,40.63
2019-05-02T17:36:15.720Z,43.57
2019-05-02T17:38:45.702Z,40.20
2019-05-02T17:41:16.188Z,37.77
2019-05-02T17:43:46.526Z,36.97
2019-05-02T17:46:18.303Z,35.23
2019-05-02T17:48:52.808Z,34.17
2019-05-02T17:51:35.791Z,30.33
2019-05-02T17:54:02.960Z,34.77
2019-05-02T17:56:33.102Z,33.20
2019-05-02T17:59:03.472Z,33.40
2019-05-02T18:01:37.378Z,31.47
2019-05-02T18:04:12.605Z,32.40
2019-05-02T18:06:39.164Z,33.33
2019-05-02T18:09:09.510Z,31.40
2019-05-02T18:11:42.302Z,32.83
2019-05-02T18:14:19.744Z,34.93
2019-05-02T18:16:47.201Z,35.43
2019-05-02T18:19:20.511Z,32.90
2019-05-02T18:21:47.692Z,29.17
2019-05-02T18:24:17.956Z,31.30
2019-05-02T18:26:48.004Z,30.93
2019-05-02T18:29:17.997Z,31.13
2019-05-02T18:31:48.325Z,33.47
2019-05-02T18:34:21.055Z,29.77
2019-05-02T18:36:49.951Z,31.47
2019-05-02T18:39:22.074Z,31.00
2019-05-02T18:41:52.059Z,30.20
2019-05-02T18:44:23.809Z,31.97
2019-05-02T18:46:53.807Z,30.12
2019-05-02T18:49:23.805Z,28.60
2019-05-02T18:51:57.253Z,27.40
2019-05-02T18:54:25.630Z,27.03
2019-05-02T18:56:55.626Z,28.47
2019-05-02T18:59:27.277Z,26.07
2019-05-02T19:01:59.562Z,28.60
2019-05-02T19:04:34.850Z,26.37
2019-05-02T19:07:02.690Z,25.50
2019-05-02T19:09:33.152Z,21.37
2019-05-02T19:12:05.749Z,22.37
2019-05-02T19:14:36.111Z,23.97
2019-05-02T19:17:07.487Z,24.63
2019-05-02T19:19:37.702Z,23.33
2019-05-02T19:22:13.214Z,25.97
2019-05-02T19:24:39.614Z,24.90
2019-05-02T19:27:12.861Z,25.70
2019-05-02T19:29:48.217Z,25.37
2019-05-02T19:32:17.125Z,26.17
2019-05-02T19:34:47.537Z,24.23
2019-05-02T19:37:17.554Z,25.70
2019-05-02T19:39:48.922Z,26.43
2019-05-02T19:42:22.518Z,24.67
2019-05-02T19:44:52.747Z,26.70
2019-05-02T19:47:23.328Z,25.10
2019-05-02T19:49:54.418Z,24.77
2019-05-02T19:52:28.571Z,25.20
2019-05-02T19:54:58.979Z,25.57
2019-05-02T19:57:29.187Z,22.47
2019-05-02T20:00:02.807Z,22.00
2019-05-02T20:02:32.805Z,22.47
2019-05-02T20:05:04.611Z,22.40
2019-05-02T20:07:34.647Z,21.23
2019-05-02T20:10:05.079Z,21.60
2019-05-02T20:12:35.468Z,23.40
2019-05-02T20:15:05.861Z,23.60
2019-05-02T20:17:36.145Z,20.93
2019-05-02T20:20:10.085Z,22.60
2019-05-02T20:22:41.708Z,22.23
2019-05-02T20:25:12.723Z,21.23
2019-05-02T20:27:42.732Z,23.87
2019-05-02T20:30:12.886Z,22.53
2019-05-02T20:32:42.898Z,19.93
2019-05-02T20:35:13.077Z,19.53
2019-05-02T20:37:44.295Z,20.57
2019-05-02T20:40:28.947Z,19.33
2019-05-02T20:42:58.977Z,18.17
2019-05-02T20:45:29.181Z,17.60
2019-05-02T20:47:59.168Z,16.33
2019-05-02T20:50:29.390Z,16.80
2019-05-02T20:52:59.637Z,17.67
2019-05-02T20:55:29.803Z,16.23
2019-05-02T20:58:02.025Z,16.73
2019-05-02T21:00:32.448Z,15.07
2019-05-02T21:03:02.810Z,14.20
2019-05-02T21:05:48.808Z,14.10
2019-05-02T21:08:39.048Z,14.10
2019-05-02T21:11:09.262Z,15.03
2019-05-02T21:13:39.425Z,13.57
2019-05-02T21:16:09.385Z,12.20
2019-05-02T21:18:39.360Z,12.83
2019-05-02T21:21:09.431Z,10.72
2019-05-02T21:23:44.708Z,10.97
2019-05-02T21:26:11.071Z,10.20
2019-05-02T21:28:42.829Z,10.00
2019-05-02T21:31:12.937Z,10.83
2019-05-02T21:33:42.983Z,10.17
2019-05-02T21:36:13.275Z,9.43
2019-05-02T21:38:43.290Z,10.17
2019-05-02T21:41:13.959Z,8.63
2019-05-02T21:43:43.857Z,9.43
2019-05-02T21:46:13.740Z,8.90
2019-05-02T21:48:43.714Z,8.70
2019-05-02T21:51:24.042Z,8.07
2019-05-02T21:54:12.177Z,7.87
2019-05-02T21:56:45.304Z,7.97
2019-05-02T21:59:15.354Z,7.23
2019-05-02T22:01:51.741Z,7.70
2019-05-02T22:04:22.432Z,7.00
2019-05-02T22:06:52.735Z,6.90
2019-05-02T22:09:23.259Z,6.60
2019-05-02T22:11:53.408Z,6.20
2019-05-02T22:14:23.391Z,5.87
2019-05-02T22:16:53.337Z,6.87
2019-05-02T22:19:24.316Z,6.77
2019-05-02T22:21:54.346Z,6.67
2019-05-02T22:24:24.613Z,6.63
2019-05-02T22:26:55.477Z,5.60
2019-05-02T22:29:25.441Z,5.62
2019-05-02T22:31:56.283Z,5.13
2019-05-02T22:34:26.246Z,5.00
2019-05-02T22:36:56.501Z,4.90
2019-05-02T22:39:37.706Z,4.03
2019-05-02T22:42:07.666Z,5.60
2019-05-02T22:44:37.718Z,4.60
2019-05-02T22:47:07.703Z,5.60
2019-05-02T22:49:37.950Z,4.43
2019-05-02T22:52:07.934Z,5.27
2019-05-02T22:54:37.901Z,5.10
2019-05-02T22:57:07.877Z,5.20
2019-05-02T22:59:37.857Z,4.80
2019-05-02T23:02:07.894Z,5.40
2019-05-02T23:04:37.853Z,5.60
2019-05-02T23:07:07.837Z,5.37
2019-05-02T23:09:37.881Z,5.50
2019-05-02T23:12:08.119Z,5.57
2019-05-02T23:14:38.125Z,5.80
2019-05-02T23:17:08.341Z,5.40
2019-05-02T23:19:38.334Z,4.73
2019-05-02T23:22:08.291Z,5.70
2019-05-02T23:24:52.026Z,5.53
2019-05-02T23:27:28.473Z,5.50
2019-05-02T23:29:58.476Z,6.80
2019-05-02T23:32:28.979Z,5.50
2019-05-02T23:34:58.942Z,5.67
2019-05-02T23:37:28.908Z,5.97
2019-05-02T23:39:58.843Z,6.20
2019-05-02T23:42:28.726Z,5.50
2019-05-02T23:44:58.729Z,5.97
2019-05-02T23:47:28.716Z,6.03
2019-05-02T23:49:58.698Z,5.93
2019-05-02T23:52:29.055Z,5.30
2019-05-02T23:54:59.028Z,6.63
2019-05-02T23:57:29.061Z,5.77
2019-05-02T23:59:59.047Z,6.22
